createdAt,value
2019-03-30T00:00:42.963Z,12.40
2019-03-30T00:03:12.412Z,12.40
2019-03-30T00:05:41.667Z,12.40
2019-03-30T00:08:10.919Z,12.30
2019-03-30T00:10:40.203Z,12.30
2019-03-30T00:13:09.499Z,12.20
2019-03-30T00:15:38.746Z,12.20
2019-03-30T00:18:08.078Z,12.10
2019-03-30T00:20:40.372Z,12.00
2019-03-30T00:23:09.679Z,12.00
2019-03-30T00:25:39.210Z,12.00
2019-03-30T00:28:08.555Z,12.00
2019-03-30T00:30:37.863Z,11.90
2019-03-30T00:33:07.155Z,12.00
2019-03-30T00:35:36.420Z,12.00
2019-03-30T00:38:05.782Z,11.90
2019-03-30T00:40:36.332Z,11.90
2019-03-30T00:43:05.735Z,11.90
2019-03-30T00:45:35.182Z,12.00
2019-03-30T00:48:04.510Z,12.00
2019-03-30T00:50:33.835Z,12.00
2019-03-30T00:53:03.188Z,12.00
2019-03-30T00:55:35.420Z,12.00
2019-03-30T00:58:04.781Z,11.90
2019-03-30T01:00:34.171Z,11.90
2019-03-30T01:03:03.463Z,11.80
2019-03-30T01:05:52.067Z,11.80
2019-03-30T01:08:21.370Z,11.80
2019-03-30T01:10:50.610Z,11.80
2019-03-30T01:13:19.854Z,11.80
2019-03-30T01:15:49.953Z,11.70
2019-03-30T01:18:19.263Z,11.80
2019-03-30T01:20:48.689Z,11.70
2019-03-30T01:23:17.925Z,11.70
2019-03-30T01:25:47.271Z,11.50
2019-03-30T01:28:16.612Z,11.50
2019-03-30T01:31:05.223Z,11.50
2019-03-30T01:33:34.546Z,11.40
2019-03-30T01:36:03.831Z,11.50
2019-03-30T01:38:33.063Z,11.40
2019-03-30T01:41:02.381Z,11.40
2019-03-30T01:43:31.646Z,11.50
2019-03-30T01:46:00.976Z,11.50
2019-03-30T01:48:32.699Z,11.50
2019-03-30T01:51:01.945Z,11.50
2019-03-30T01:53:31.219Z,11.50
2019-03-30T01:56:00.494Z,11.50
2019-03-30T01:58:29.749Z,11.50
2019-03-30T02:00:59.120Z,11.40
2019-03-30T02:03:47.792Z,11.30
2019-03-30T02:06:17.056Z,11.30
2019-03-30T02:08:46.356Z,11.30
2019-03-30T02:11:15.626Z,11.20
2019-03-30T02:13:44.886Z,11.20
2019-03-30T02:16:33.490Z,11.20
2019-03-30T02:19:02.756Z,11.20
2019-03-30T02:21:32.036Z,11.20
2019-03-30T02:24:01.274Z,11.30
2019-03-30T02:26:30.551Z,11.30
2019-03-30T02:28:59.848Z,11.30
2019-03-30T02:31:29.231Z,11.20
2019-03-30T02:33:58.523Z,11.10
2019-03-30T02:36:27.959Z,11.20
2019-03-30T02:38:57.218Z,11.10
2019-03-30T02:41:26.548Z,11.10
2019-03-30T02:43:55.791Z,11.10
2019-03-30T02:46:25.063Z,11.10
2019-03-30T02:48:54.331Z,11.00
2019-03-30T02:51:23.684Z,11.00
2019-03-30T02:53:53.019Z,10.90
2019-03-30T02:56:22.283Z,10.80
2019-03-30T02:58:51.539Z,10.80
2019-03-30T03:01:20.779Z,10.80
2019-03-30T03:04:09.381Z,10.80
2019-03-30T03:06:38.641Z,10.80
2019-03-30T03:09:09.559Z,10.70
2019-03-30T03:11:58.181Z,10.70
2019-03-30T03:14:27.435Z,10.50
2019-03-30T03:16:56.711Z,10.50
2019-03-30T03:19:26.002Z,10.50
2019-03-30T03:21:55.260Z,10.60
2019-03-30T03:24:43.872Z,10.60
2019-03-30T03:27:14.442Z,10.60
2019-03-30T03:29:44.285Z,10.50
2019-03-30T03:32:13.998Z,10.40
2019-03-30T03:34:43.276Z,10.30
2019-03-30T03:37:12.598Z,10.30
2019-03-30T03:39:41.972Z,10.20
2019-03-30T03:42:30.600Z,10.10
2019-03-30T03:44:59.837Z,10.20
2019-03-30T03:47:29.074Z,10.20
2019-03-30T03:49:58.413Z,10.30
2019-03-30T03:52:28.039Z,10.30
2019-03-30T03:54:58.191Z,10.40
2019-03-30T03:57:28.712Z,10.30
2019-03-30T03:59:58.924Z,10.30
2019-03-30T04:02:31.205Z,10.30
2019-03-30T04:05:02.809Z,10.30
2019-03-30T04:07:33.948Z,10.20
2019-03-30T04:10:05.167Z,10.20
2019-03-30T04:12:36.780Z,10.20
2019-03-30T04:15:25.561Z,10.20
2019-03-30T04:17:54.875Z,10.20
2019-03-30T04:20:24.501Z,10.20
2019-03-30T04:23:13.246Z,10.10
2019-03-30T04:25:42.504Z,10.10
2019-03-30T04:28:11.872Z,10.10
2019-03-30T04:30:41.322Z,10.10
2019-03-30T04:33:10.642Z,10.00
2019-03-30T04:35:39.951Z,9.90
2019-03-30T04:38:28.548Z,9.90
2019-03-30T04:40:57.791Z,10.00
2019-03-30T04:43:27.046Z,9.90
2019-03-30T04:46:15.630Z,9.90
2019-03-30T04:48:44.898Z,9.80
2019-03-30T04:51:14.214Z,9.70
2019-03-30T04:53:43.470Z,9.70
2019-03-30T04:56:12.717Z,9.80
2019-03-30T04:58:41.978Z,9.70
2019-03-30T05:01:11.250Z,9.60
2019-03-30T05:03:40.556Z,9.60
2019-03-30T05:06:09.840Z,9.70
2019-03-30T05:08:39.126Z,9.70
2019-03-30T05:11:27.816Z,9.70
2019-03-30T05:13:57.058Z,9.70
2019-03-30T05:16:26.315Z,9.70
2019-03-30T05:18:55.615Z,9.70
2019-03-30T05:21:24.854Z,9.60
2019-03-30T05:23:54.122Z,9.60
2019-03-30T05:26:23.367Z,9.70
2019-03-30T05:29:12.069Z,9.70
2019-03-30T05:31:41.319Z,9.60
2019-03-30T05:34:10.580Z,9.60
2019-03-30T05:36:39.826Z,9.50
2019-03-30T05:39:09.051Z,9.60
2019-03-30T05:41:57.643Z,9.50
2019-03-30T05:44:26.879Z,9.40
2019-03-30T05:46:56.147Z,9.40
2019-03-30T05:49:29.167Z,9.50
2019-03-30T05:51:58.437Z,9.50
2019-03-30T05:54:27.731Z,9.50
2019-03-30T05:56:57.052Z,9.60
2019-03-30T05:59:45.667Z,9.70
2019-03-30T06:02:14.912Z,9.60
2019-03-30T06:05:03.923Z,9.70
2019-03-30T06:07:33.247Z,9.70
2019-03-30T06:10:02.510Z,9.80
2019-03-30T06:12:51.084Z,9.90
2019-03-30T06:15:20.360Z,9.90
2019-03-30T06:17:49.655Z,9.90
2019-03-30T06:20:18.931Z,10.00
2019-03-30T06:22:48.258Z,10.10
2019-03-30T06:25:17.514Z,10.10
2019-03-30T06:27:47.936Z,10.20
2019-03-30T06:30:22.635Z,10.30
2019-03-30T06:32:51.965Z,10.30
2019-03-30T06:35:21.271Z,10.40
2019-03-30T06:38:09.883Z,10.40
2019-03-30T06:40:39.156Z,10.50
2019-03-30T06:43:08.404Z,10.60
2019-03-30T06:45:37.747Z,10.60
2019-03-30T06:48:07.071Z,10.80
2019-03-30T06:50:36.365Z,10.90
2019-03-30T06:53:05.794Z,10.90
2019-03-30T06:55:35.038Z,11.10
2019-03-30T06:58:04.290Z,11.20
2019-03-30T07:00:36.970Z,11.40
2019-03-30T07:03:06.782Z,11.50
2019-03-30T07:05:41.275Z,11.70
2019-03-30T07:08:27.363Z,11.80
2019-03-30T07:10:58.152Z,12.10
2019-03-30T07:13:30.411Z,12.20
2019-03-30T07:16:03.583Z,12.30
2019-03-30T07:18:34.071Z,12.50
2019-03-30T07:21:03.383Z,12.70
2019-03-30T07:23:32.672Z,12.90
2019-03-30T07:26:01.935Z,13.10
2019-03-30T07:28:31.272Z,13.30
2019-03-30T07:31:01.015Z,13.50
2019-03-30T07:33:30.268Z,13.70
2019-03-30T07:39:46.664Z,13.90
2019-03-30T07:42:16.070Z,14.20
2019-03-30T07:44:45.421Z,14.30
2019-03-30T07:47:14.744Z,14.40
2019-03-30T07:49:44.056Z,14.60
2019-03-30T07:52:32.709Z,14.70
2019-03-30T07:55:02.067Z,14.90
2019-03-30T07:57:31.386Z,15.10
2019-03-30T08:00:20.279Z,15.20
2019-03-30T08:02:49.599Z,15.40
2019-03-30T08:05:18.911Z,15.60
2019-03-30T08:07:48.231Z,15.90
2019-03-30T08:10:17.570Z,16.10
2019-03-30T08:12:48.536Z,16.30
2019-03-30T08:15:17.986Z,16.50
2019-03-30T08:17:47.382Z,16.40
2019-03-30T08:20:16.893Z,16.30
2019-03-30T08:23:05.604Z,16.30
2019-03-30T08:25:54.245Z,16.30
2019-03-30T08:28:23.582Z,16.40
2019-03-30T08:30:52.967Z,16.40
2019-03-30T08:33:22.327Z,16.30
2019-03-30T08:35:51.575Z,16.40
2019-03-30T08:38:20.860Z,16.40
2019-03-30T08:40:50.201Z,16.40
2019-03-30T08:43:19.474Z,16.30
2019-03-30T08:45:49.097Z,16.40
2019-03-30T08:48:18.463Z,16.50
2019-03-30T08:50:47.717Z,16.70
2019-03-30T08:53:17.032Z,16.90
2019-03-30T08:55:46.327Z,17.20
2019-03-30T08:58:15.600Z,17.60
2019-03-30T09:00:44.884Z,17.70
2019-03-30T09:03:15.846Z,17.50
2019-03-30T09:05:45.094Z,17.40
2019-03-30T09:08:14.518Z,17.60
2019-03-30T09:10:43.819Z,17.80
2019-03-30T09:13:13.068Z,18.00
2019-03-30T09:15:42.938Z,18.50
2019-03-30T09:18:12.190Z,19.20
2019-03-30T09:20:41.509Z,19.70
2019-03-30T09:23:10.784Z,20.10
2019-03-30T09:25:40.092Z,20.40
2019-03-30T09:28:09.371Z,20.80
2019-03-30T09:30:38.612Z,21.10
2019-03-30T09:33:07.927Z,21.20
2019-03-30T09:35:37.208Z,21.00
2019-03-30T09:38:06.570Z,21.10
2019-03-30T09:40:35.871Z,21.20
2019-03-30T09:43:05.190Z,21.70
2019-03-30T09:45:34.529Z,22.30
2019-03-30T09:48:03.858Z,23.40
2019-03-30T09:50:33.110Z,24.30
2019-03-30T09:53:02.438Z,24.70
2019-03-30T09:55:31.883Z,26.00
2019-03-30T09:58:01.300Z,27.10
2019-03-30T10:00:30.717Z,28.00
2019-03-30T10:03:00.062Z,28.50
2019-03-30T10:05:29.418Z,28.40
2019-03-30T10:07:58.710Z,28.20
2019-03-30T10:10:28.067Z,28.60
2019-03-30T10:12:57.365Z,29.00
2019-03-30T10:15:26.801Z,29.40
2019-03-30T10:17:56.030Z,28.80
2019-03-30T10:20:44.663Z,28.40
2019-03-30T10:23:14.063Z,27.40
2019-03-30T10:25:43.310Z,27.10
2019-03-30T10:28:12.632Z,26.70
2019-03-30T10:30:41.878Z,26.30
2019-03-30T10:33:30.475Z,26.50
2019-03-30T10:35:59.755Z,27.20
2019-03-30T10:38:29.018Z,28.30
2019-03-30T10:40:58.244Z,29.30
2019-03-30T10:43:27.625Z,29.20
2019-03-30T10:45:57.324Z,29.90
2019-03-30T10:48:26.635Z,30.40
2019-03-30T10:50:56.831Z,29.60
2019-03-30T10:53:26.117Z,28.80
2019-03-30T10:56:01.395Z,28.60
2019-03-30T10:58:30.634Z,28.00
2019-03-30T11:00:59.959Z,27.90
2019-03-30T11:03:30.743Z,27.70
2019-03-30T11:06:00.072Z,28.10
2019-03-30T11:08:29.287Z,28.30
2019-03-30T11:11:17.898Z,28.20
2019-03-30T11:13:47.221Z,28.20
2019-03-30T11:16:16.604Z,28.10
2019-03-30T11:18:45.959Z,28.40
2019-03-30T11:21:15.282Z,28.50
2019-03-30T11:23:44.613Z,28.90
2019-03-30T11:26:14.087Z,28.40
2019-03-30T11:28:43.493Z,27.50
2019-03-30T11:31:12.782Z,28.40
2019-03-30T11:33:42.048Z,28.00
2019-03-30T11:36:30.771Z,28.20
2019-03-30T11:39:00.078Z,28.50
2019-03-30T11:41:29.466Z,28.50
2019-03-30T11:44:18.164Z,28.80
2019-03-30T11:47:06.762Z,28.10
2019-03-30T11:49:36.036Z,28.40
2019-03-30T11:52:05.280Z,28.10
2019-03-30T11:54:35.731Z,28.60
2019-03-30T11:57:04.995Z,28.50
2019-03-30T11:59:34.278Z,29.10
2019-03-30T12:02:03.677Z,29.20
2019-03-30T12:04:32.967Z,29.90
2019-03-30T12:07:02.283Z,29.30
2019-03-30T12:09:31.634Z,28.40
2019-03-30T12:12:20.263Z,28.40
2019-03-30T12:14:49.536Z,28.10
2019-03-30T12:17:18.793Z,28.10
2019-03-30T12:19:48.140Z,28.70
2019-03-30T12:22:17.456Z,28.20
2019-03-30T12:24:46.798Z,26.70
2019-03-30T12:27:16.266Z,25.50
2019-03-30T12:29:45.549Z,24.50
2019-03-30T12:32:14.890Z,23.60
2019-03-30T12:34:44.167Z,23.00
2019-03-30T12:37:15.213Z,22.60
2019-03-30T12:39:44.478Z,22.40
2019-03-30T12:42:15.015Z,21.90
2019-03-30T12:44:44.282Z,21.70
2019-03-30T12:47:13.875Z,21.50
2019-03-30T12:49:45.240Z,21.60
2019-03-30T12:52:15.466Z,21.80
2019-03-30T12:54:44.857Z,21.80
2019-03-30T12:57:14.321Z,21.80
2019-03-30T12:59:43.570Z,21.90
2019-03-30T13:02:12.831Z,22.00
2019-03-30T13:04:42.099Z,22.00
2019-03-30T13:07:11.355Z,22.10
2019-03-30T13:09:40.642Z,21.90
2019-03-30T13:12:10.001Z,21.70
2019-03-30T13:14:39.260Z,21.60
2019-03-30T13:17:08.517Z,21.60
2019-03-30T13:19:37.777Z,21.70
2019-03-30T13:22:07.034Z,21.70
2019-03-30T13:24:36.419Z,21.60
2019-03-30T13:27:05.704Z,21.40
2019-03-30T13:29:35.030Z,21.10
2019-03-30T13:32:04.348Z,21.20
2019-03-30T13:34:33.648Z,21.30
2019-03-30T13:37:22.317Z,21.30
2019-03-30T13:39:51.652Z,21.20
2019-03-30T13:42:20.923Z,21.20
2019-03-30T13:44:50.170Z,21.40
2019-03-30T13:47:19.450Z,21.60
2019-03-30T13:49:48.775Z,21.70
2019-03-30T13:52:18.061Z,21.20
2019-03-30T13:54:47.332Z,21.00
2019-03-30T13:57:16.594Z,21.20
2019-03-30T13:59:45.866Z,21.20
2019-03-30T14:02:15.263Z,21.20
2019-03-30T14:04:44.579Z,21.10
2019-03-30T14:07:13.881Z,21.30
2019-03-30T14:09:43.163Z,21.20
2019-03-30T14:12:12.416Z,21.20
2019-03-30T14:14:41.757Z,21.20
2019-03-30T14:17:11.122Z,21.20
2019-03-30T14:19:40.354Z,21.30
2019-03-30T14:22:09.631Z,21.40
2019-03-30T14:24:38.896Z,21.50
2019-03-30T14:27:08.161Z,21.70
2019-03-30T14:29:37.471Z,21.90
2019-03-30T14:32:06.800Z,21.80
2019-03-30T14:34:36.065Z,21.70
2019-03-30T14:37:05.413Z,21.60
2019-03-30T14:39:34.743Z,21.20
2019-03-30T14:42:04.292Z,20.90
2019-03-30T14:44:33.583Z,21.00
2019-03-30T14:47:02.903Z,20.90
2019-03-30T14:49:32.159Z,20.90
2019-03-30T14:52:01.445Z,21.10
2019-03-30T14:54:30.679Z,21.20
2019-03-30T14:56:59.951Z,21.20
2019-03-30T14:59:29.274Z,21.20
2019-03-30T15:01:58.514Z,21.30
2019-03-30T15:04:28.014Z,21.20
2019-03-30T15:06:57.269Z,21.00
2019-03-30T15:09:26.500Z,20.70
2019-03-30T15:11:55.754Z,20.80
2019-03-30T15:14:25.028Z,20.80
2019-03-30T15:16:54.313Z,20.50
2019-03-30T15:19:23.625Z,20.50
2019-03-30T15:21:52.923Z,20.30
2019-03-30T15:24:22.166Z,20.20
2019-03-30T15:26:59.797Z,20.20
2019-03-30T15:29:22.510Z,20.20
2019-03-30T15:31:51.822Z,20.50
2019-03-30T15:34:21.096Z,20.50
2019-03-30T15:36:50.509Z,20.50
2019-03-30T15:39:19.803Z,20.60
2019-03-30T15:41:49.940Z,20.60
2019-03-30T15:44:19.308Z,20.50
2019-03-30T15:46:48.667Z,20.50
2019-03-30T15:49:18.025Z,20.40
2019-03-30T15:51:47.565Z,20.20
2019-03-30T15:54:16.991Z,20.00
2019-03-30T15:56:46.275Z,20.00
2019-03-30T15:59:16.760Z,19.80
2019-03-30T16:02:05.595Z,19.70
2019-03-30T16:04:34.850Z,19.80
2019-03-30T16:07:06.754Z,19.70
2019-03-30T16:09:35.189Z,19.70
2019-03-30T16:12:04.595Z,19.60
2019-03-30T16:14:33.941Z,19.70
2019-03-30T16:17:03.200Z,19.70
2019-03-30T16:19:33.232Z,19.70
2019-03-30T16:22:02.549Z,19.70
2019-03-30T16:24:31.855Z,19.80
2019-03-30T16:27:01.116Z,19.90
2019-03-30T16:29:30.456Z,19.80
2019-03-30T16:31:59.777Z,19.90
2019-03-30T16:34:30.558Z,19.80
2019-03-30T16:36:59.857Z,19.90
2019-03-30T16:39:29.220Z,19.90
2019-03-30T16:41:58.506Z,19.90
2019-03-30T16:44:27.760Z,20.00
2019-03-30T16:46:57.523Z,20.10
2019-03-30T16:49:27.244Z,20.20
2019-03-30T16:51:56.571Z,20.20
2019-03-30T16:54:25.867Z,20.30
2019-03-30T16:57:14.529Z,20.30
2019-03-30T16:59:43.885Z,20.30
2019-03-30T17:02:13.382Z,20.20
2019-03-30T17:04:42.632Z,20.20
2019-03-30T17:07:11.901Z,20.00
2019-03-30T17:10:00.571Z,20.00
2019-03-30T17:12:29.909Z,19.90
2019-03-30T17:14:59.263Z,19.80
2019-03-30T17:17:28.550Z,19.70
2019-03-30T17:19:57.871Z,19.80
2019-03-30T17:22:39.759Z,19.70
2019-03-30T17:25:09.323Z,19.70
2019-03-30T17:27:38.671Z,19.70
2019-03-30T17:30:10.063Z,19.60
2019-03-30T17:32:39.454Z,19.60
2019-03-30T17:35:08.938Z,19.50
2019-03-30T17:37:38.280Z,19.50
2019-03-30T17:40:08.979Z,19.50
2019-03-30T17:42:38.946Z,19.50
2019-03-30T17:45:10.123Z,19.40
2019-03-30T17:47:39.387Z,19.30
2019-03-30T17:50:09.299Z,19.30
2019-03-30T17:52:38.538Z,19.30
2019-03-30T17:55:08.664Z,19.20
2019-03-30T17:57:37.981Z,19.20
2019-03-30T18:00:13.550Z,19.20
2019-03-30T18:02:42.890Z,19.10
2019-03-30T18:05:12.664Z,19.00
2019-03-30T18:07:43.662Z,18.80
2019-03-30T18:10:13.450Z,18.70
2019-03-30T18:12:42.695Z,18.60
2019-03-30T18:15:12.704Z,18.50
2019-03-30T18:17:42.011Z,18.40
2019-03-30T18:20:11.795Z,18.30
2019-03-30T18:22:42.314Z,18.10
2019-03-30T18:25:11.839Z,18.00
2019-03-30T18:27:41.311Z,17.90
2019-03-30T18:30:11.226Z,17.80
2019-03-30T18:32:41.549Z,17.70
2019-03-30T18:35:11.172Z,17.60
2019-03-30T18:37:40.659Z,17.60
2019-03-30T18:40:11.526Z,17.50
2019-03-30T18:42:41.529Z,17.50
2019-03-30T18:45:13.979Z,17.40
2019-03-30T18:47:43.383Z,17.40
2019-03-30T18:50:12.894Z,17.30
2019-03-30T18:52:42.795Z,17.30
2019-03-30T18:55:15.109Z,17.20
2019-03-30T18:57:44.474Z,17.10
2019-03-30T19:00:16.793Z,17.00
2019-03-30T19:02:46.041Z,17.00
2019-03-30T19:05:15.376Z,16.90
2019-03-30T19:07:44.694Z,16.90
2019-03-30T19:10:14.060Z,16.90
2019-03-30T19:12:43.362Z,16.80
2019-03-30T19:15:12.726Z,16.70
2019-03-30T19:17:42.086Z,16.70
2019-03-30T19:20:11.681Z,16.60
2019-03-30T19:22:41.008Z,16.50
2019-03-30T19:25:10.584Z,16.50
2019-03-30T19:27:39.833Z,16.50
2019-03-30T19:30:10.776Z,16.50
2019-03-30T19:32:40.170Z,16.40
2019-03-30T19:35:09.720Z,16.40
2019-03-30T19:37:40.226Z,16.30
2019-03-30T19:40:09.856Z,16.30
2019-03-30T19:42:39.107Z,16.20
2019-03-30T19:45:27.759Z,16.20
2019-03-30T19:47:56.999Z,16.20
2019-03-30T19:50:26.297Z,16.10
2019-03-30T19:52:55.574Z,16.00
2019-03-30T19:55:44.262Z,15.90
2019-03-30T19:58:13.539Z,15.80
2019-03-30T20:00:42.979Z,15.60
2019-03-30T20:03:12.360Z,15.50
2019-03-30T20:05:44.521Z,15.40
2019-03-30T20:08:12.918Z,15.40
2019-03-30T20:10:42.236Z,15.40
2019-03-30T20:13:11.595Z,15.40
2019-03-30T20:16:00.355Z,15.50
2019-03-30T20:18:29.747Z,15.50
2019-03-30T20:20:59.174Z,15.50
2019-03-30T20:23:28.476Z,15.50
2019-03-30T20:25:57.799Z,15.50
2019-03-30T20:28:27.138Z,15.50
2019-03-30T20:30:56.502Z,15.40
2019-03-30T20:33:25.902Z,15.40
2019-03-30T20:35:55.155Z,15.40
2019-03-30T20:38:24.474Z,15.40
2019-03-30T20:40:53.925Z,15.40
2019-03-30T20:43:23.269Z,15.50
2019-03-30T20:45:52.521Z,15.50
2019-03-30T20:48:21.781Z,15.50
2019-03-30T20:50:51.086Z,15.50
2019-03-30T20:53:20.343Z,15.40
2019-03-30T20:55:49.695Z,15.50
2019-03-30T20:58:19.119Z,15.50
2019-03-30T21:00:48.549Z,15.50
2019-03-30T21:03:17.866Z,15.50
2019-03-30T21:05:47.137Z,15.50
2019-03-30T21:08:16.446Z,15.40
2019-03-30T21:10:45.915Z,15.40
2019-03-30T21:13:16.805Z,15.40
2019-03-30T21:15:46.098Z,15.30
2019-03-30T21:18:15.428Z,15.30
2019-03-30T21:20:44.746Z,15.40
2019-03-30T21:23:14.353Z,15.30
2019-03-30T21:25:43.671Z,15.30
2019-03-30T21:28:12.988Z,15.20
2019-03-30T21:30:42.338Z,15.20
2019-03-30T21:33:30.940Z,15.20
2019-03-30T21:36:00.192Z,15.10
2019-03-30T21:38:48.868Z,15.00
2019-03-30T21:41:37.466Z,15.00
2019-03-30T21:44:21.122Z,14.90
2019-03-30T21:46:37.930Z,14.90
2019-03-30T21:49:07.268Z,14.90
2019-03-30T21:51:36.511Z,14.80
2019-03-30T21:54:05.863Z,14.80
2019-03-30T21:56:35.236Z,14.70
2019-03-30T21:59:04.645Z,14.80
2019-03-30T22:01:33.924Z,14.80
2019-03-30T22:04:03.247Z,14.90
2019-03-30T22:06:32.691Z,14.90
2019-03-30T22:09:02.523Z,14.80
2019-03-30T22:11:31.799Z,14.80
2019-03-30T22:14:01.115Z,14.80
2019-03-30T22:16:49.754Z,14.90
2019-03-30T22:19:38.378Z,14.90
2019-03-30T22:22:07.722Z,15.00
2019-03-30T22:24:36.975Z,15.00
2019-03-30T22:27:06.254Z,14.90
2019-03-30T22:29:35.546Z,14.80
2019-03-30T22:32:04.876Z,14.60
2019-03-30T22:34:34.163Z,14.50
2019-03-30T22:37:04.528Z,14.40
2019-03-30T22:39:33.782Z,14.40
2019-03-30T22:42:03.098Z,14.40
2019-03-30T22:44:32.335Z,14.40
2019-03-30T22:47:01.605Z,14.50
2019-03-30T22:49:30.867Z,14.50
2019-03-30T22:52:00.210Z,14.60
2019-03-30T22:54:29.434Z,14.70
2019-03-30T22:56:58.705Z,14.70
2019-03-30T22:59:28.026Z,14.70
2019-03-30T23:01:57.328Z,14.70
2019-03-30T23:04:26.633Z,14.70
2019-03-30T23:06:55.976Z,14.60
2019-03-30T23:09:25.232Z,14.40
2019-03-30T23:11:55.156Z,14.40
2019-03-30T23:14:24.437Z,14.40
2019-03-30T23:16:53.716Z,14.50
2019-03-30T23:19:22.954Z,14.60
2019-03-30T23:21:52.207Z,14.60
2019-03-30T23:24:21.466Z,14.60
2019-03-30T23:26:50.812Z,14.50
2019-03-30T23:29:20.235Z,14.40
2019-03-30T23:32:08.834Z,14.40
2019-03-30T23:34:38.111Z,14.40
2019-03-30T23:37:07.369Z,14.40
2019-03-30T23:39:36.600Z,14.40
2019-03-30T23:42:05.950Z,14.40
2019-03-30T23:44:35.924Z,14.40
2019-03-30T23:47:24.537Z,14.40
2019-03-30T23:49:53.775Z,14.40
2019-03-30T23:52:42.393Z,14.30
2019-03-30T23:55:11.707Z,14.20
2019-03-30T23:57:41.067Z,14.20
